METAR UND TAF INFORMATION
METAR FOR HEGN
ADDS - METARS form results

(1519 UTC 26 May 2018)
Data provider http://aviationweather.gov/adds/metars/
 
Forecast for: HEGN (HURGUADA , EG)
Text: TAF HEGN 261100Z 2612/2718 36015KT 9999 SCT025
Forecast period: 1200 UTC 26 May 2018 to 1800 UTC 27 May 2018
Forecast type: FROM: standard forecast or significant change
Winds: from the N (360 degrees) at 17 MPH (15 knots; 7.8 m/s)
Visibility: 6 or more miles (10+ km)
Clouds: scattered clouds at 2500 feet AGL
Weather: no significant weather forecast for this period
Text: PROB30
Forecast period: 1200 to 1500 UTC 26 May 2018
Forecast type: TEMPORARY: The following changes expected for less than half the time period
Visibility: 2.49 miles (4.01 km)
Ceiling: 2500 feet AGL
Clouds: few clouds at 2000 feet AGL
broken clouds at 2500 feet AGL
Weather: TSRA  (rain associated with thunderstorm(s))

 FLUGHAFENKARTE

 RUNWAY INFORMATION
Runway 16 Runway length 13124 ft Runway width 148 ft
Runway elevation 50 ft Runway displaced threshold 985 ft Runway heading 165
Runway 34 Runway length 13124 ft Runway width 148 ft
Runway elevation 35 ft Runway displaced threshold 0 ft Runway heading 345

 AIRPORT FREQUENCIES
Type APP Name RADAR Frequency 123.4 MHZ
Type GND Name GND Frequency 121.9 MHZ
Type RDO Name RDO Frequency 585.9 MHZ
Type TWR Name TWR Frequency 119.6 MHZ

 AIRPORT NEAR NAVIGATION AIDS
Type VOR-DME Name Hurghada Frequency 116500 KHZ



Powered by Virtual Airlines Manager [v2.6.2]